Time;durP1;ratioP1;P1;durP2;ratioP2;P2;SDS_P1;SDS_P2;PMS_P1;PMS_P2;Temp;Humidity;BMP_temperature;BMP_pressure;BME280_temperature;BME280_humidity;BME280_pressure;Samples;Min_cycle;Max_cycle;Signal;HPM_P1;HPM_P2
2023/12/19 00:01:11;;;;;;;12.30;8.43;;;;;;;7.31;53.35;98657.44;5043480;28;20191;-69
2023/12/19 00:03:36;;;;;;;9.53;6.77;;;;;;;7.09;53.49;98637.88;5041551;28;20211;-69
2023/12/19 00:06:02;;;;;;;11.73;6.70;;;;;;;6.99;53.97;98644.59;5032665;28;20274;-69
2023/12/19 00:08:28;;;;;;;9.27;6.87;;;;;;;7.13;54.33;98652.41;5040628;28;20210;-70
2023/12/19 00:10:53;;;;;;;8.87;7.03;;;;;;;7.23;53.21;98650.91;5029230;28;20651;-70
2023/12/19 00:13:19;;;;;;;10.37;7.00;;;;;;;7.34;52.34;98646.78;5036641;28;20258;-69
2023/12/19 00:15:44;;;;;;;10.73;7.40;;;;;;;7.41;51.93;98653.31;5038109;28;20673;-71
2023/12/19 00:18:10;;;;;;;11.60;7.43;;;;;;;7.47;52.36;98650.28;5044606;28;20215;-70
2023/12/19 00:20:35;;;;;;;10.33;7.63;;;;;;;7.44;51.91;98642.66;5036364;28;20282;-70
2023/12/19 00:23:00;;;;;;;11.90;7.43;;;;;;;7.34;52.43;98638.94;5046104;28;20225;-69
2023/12/19 00:25:26;;;;;;;11.00;7.27;;;;;;;7.26;52.83;98642.03;5031724;28;20684;-70
2023/12/19 00:27:52;;;;;;;9.80;7.20;;;;;;;7.32;53.00;98630.38;5041762;28;20193;-69
2023/12/19 00:30:17;;;;;;;9.30;6.90;;;;;;;7.39;52.50;98618.66;5034954;28;20270;-69
2023/12/19 00:32:43;;;;;;;10.37;6.80;;;;;;;7.26;52.67;98605.53;5039480;28;20214;-70
2023/12/19 00:35:08;;;;;;;10.67;7.30;;;;;;;7.37;52.87;98595.25;5043137;28;20219;-69
2023/12/19 00:37:34;;;;;;;11.30;7.37;;;;;;;7.39;52.12;98584.72;5031128;28;20785;-69
2023/12/19 00:40:00;;;;;;;9.90;7.50;;;;;;;7.47;51.95;98574.63;5044520;28;20329;-68
2023/12/19 00:42:25;;;;;;;11.50;6.77;;;;;;;7.49;52.00;98564.13;5032655;28;20667;-69
2023/12/19 00:44:50;;;;;;;8.27;6.23;;;;;;;7.40;52.54;98562.94;5044065;28;20933;-69
2023/12/19 00:47:16;;;;;;;11.50;7.03;;;;;;;7.31;52.69;98558.31;5042021;28;20310;-70
2023/12/19 00:49:42;;;;;;;13.73;7.93;;;;;;;7.27;52.34;98562.03;5039067;28;20265;-70
2023/12/19 00:52:08;;;;;;;7.77;6.80;;;;;;;7.23;52.06;98564.84;5032706;28;20551;-69
2023/12/19 00:54:33;;;;;;;10.00;6.73;;;;;;;7.26;52.27;98557.75;5040879;28;20457;-70
2023/12/19 00:56:58;;;;;;;10.13;7.00;;;;;;;7.29;52.49;98563.63;5038837;28;20212;-70
2023/12/19 00:59:24;;;;;;;10.93;7.47;;;;;;;7.26;52.23;98561.19;5045216;28;20212;-69
2023/12/19 01:01:49;;;;;;;7.90;6.10;;;;;;;7.22;52.79;98567.56;5040827;28;20747;-69
2023/12/19 01:04:17;;;;;;;11.20;7.00;;;;;;;7.11;52.20;98570.84;5033348;28;20221;-72
2023/12/19 01:06:43;;;;;;;9.20;6.73;;;;;;;7.05;52.23;98568.63;5047854;28;20615;-70
2023/12/19 01:09:09;;;;;;;9.70;7.10;;;;;;;7.04;52.79;98561.75;5034467;28;20434;-70
2023/12/19 01:11:35;;;;;;;11.80;7.23;;;;;;;7.03;52.48;98553.06;5042061;28;20218;-70
2023/12/19 01:14:01;;;;;;;8.90;6.67;;;;;;;6.99;52.69;98551.59;5029342;28;20509;-70
2023/12/19 01:16:28;;;;;;;9.40;7.00;;;;;;;7.07;52.85;98548.50;5036519;28;20191;-70
2023/12/19 01:18:53;;;;;;;8.20;6.57;;;;;;;7.14;52.30;98551.53;5045311;28;20245;-69
2023/12/19 01:21:19;;;;;;;9.77;7.30;;;;;;;7.10;52.29;98561.34;5032539;28;21129;-69
2023/12/19 01:23:45;;;;;;;9.00;6.30;;;;;;;7.01;51.84;98551.50;5036464;28;20224;-70
2023/12/19 01:26:11;;;;;;;11.50;7.30;;;;;;;6.93;52.79;98553.75;5042446;28;20884;-69
2023/12/19 01:28:39;;;;;;;8.43;6.40;;;;;;;6.91;52.91;98553.84;5039913;28;20195;-69
2023/12/19 01:31:05;;;;;;;9.73;6.70;;;;;;;6.90;52.55;98554.78;5038967;28;20195;-69
2023/12/19 01:33:30;;;;;;;9.10;6.33;;;;;;;6.94;52.77;98558.00;5043525;28;20469;-69
2023/12/19 01:35:56;;;;;;;10.10;6.30;;;;;;;6.94;52.53;98558.00;5037683;28;20674;-70
2023/12/19 01:38:21;;;;;;;9.23;6.67;;;;;;;6.94;52.75;98558.00;5044641;28;20565;-70
2023/12/19 01:40:47;;;;;;;10.73;6.60;;;;;;;6.90;52.44;98560.84;5037408;28;20559;-70
2023/12/19 01:43:20;;;;;;;9.47;5.90;;;;;;;6.88;52.53;98569.66;5039289;28;20248;-72
2023/12/19 01:45:45;;;;;;;7.20;5.63;;;;;;;6.88;52.90;98567.91;5038959;28;20207;-70
2023/12/19 01:48:13;;;;;;;9.93;6.67;;;;;;;6.90;52.56;98580.84;5036219;28;20974;-69
2023/12/19 01:50:38;;;;;;;9.80;6.97;;;;;;;6.93;52.22;98587.66;5038061;28;20188;-69
2023/12/19 01:53:04;;;;;;;9.37;6.77;;;;;;;6.88;52.78;98588.75;5033107;28;20497;-70
2023/12/19 01:55:29;;;;;;;8.77;6.13;;;;;;;6.89;51.99;98587.84;5042820;28;20234;-72
2023/12/19 01:57:55;;;;;;;7.50;5.80;;;;;;;6.68;52.75;98573.53;5036093;28;20198;-69
2023/12/19 02:00:21;;;;;;;7.33;5.83;;;;;;;6.59;53.14;98573.13;5048354;28;20195;-70
2023/12/19 02:02:48;;;;;;;14.23;5.90;;;;;;;6.68;53.16;98570.91;5024074;28;20298;-70
2023/12/19 02:05:13;;;;;;;7.17;5.43;;;;;;;6.76;52.62;98563.47;5039477;28;22538;-70
2023/12/19 02:07:45;;;;;;;11.13;6.30;;;;;;;6.78;52.60;98556.38;5040600;28;20418;-69
2023/12/19 02:10:11;;;;;;;7.87;6.30;;;;;;;6.82;52.30;98559.63;5028356;28;20202;-71
2023/12/19 02:12:37;;;;;;;10.00;6.33;;;;;;;6.83;52.59;98572.56;5041474;28;20930;-71
2023/12/19 02:15:04;;;;;;;6.90;5.40;;;;;;;6.82;52.05;98572.66;5030788;28;20454;-70
2023/12/19 02:17:29;;;;;;;10.00;5.40;;;;;;;6.68;52.35;98570.91;5033890;28;20426;-70
2023/12/19 02:19:55;;;;;;;15.17;5.53;;;;;;;6.48;52.80;98580.78;5033633;28;20501;-70
2023/12/19 02:22:20;;;;;;;8.80;5.90;;;;;;;6.55;53.38;98581.25;5031488;28;20200;-71
2023/12/19 02:24:46;;;;;;;7.20;5.63;;;;;;;6.58;52.57;98583.66;5029278;28;20219;-70
2023/12/19 02:27:13;;;;;;;8.10;5.43;;;;;;;6.56;52.57;98582.91;5040262;28;20194;-69
2023/12/19 02:29:38;;;;;;;7.97;5.60;;;;;;;6.59;52.64;98577.53;5025318;28;20195;-69
2023/12/19 02:32:04;;;;;;;7.87;5.30;;;;;;;6.57;52.71;98577.59;5028305;28;20469;-69
2023/12/19 02:34:29;;;;;;;7.73;5.20;;;;;;;6.59;52.99;98565.31;5035436;28;20211;-71
2023/12/19 02:36:56;;;;;;;6.13;5.30;;;;;;;6.54;52.33;98556.13;5035679;28;20183;-69
2023/12/19 02:39:21;;;;;;;11.00;5.60;;;;;;;6.55;52.55;98552.59;5032178;28;20183;-70
2023/12/19 02:41:47;;;;;;;8.23;5.43;;;;;;;6.62;52.09;98561.69;5040273;28;20775;-69
2023/12/19 02:44:12;;;;;;;9.93;5.20;;;;;;;6.68;51.95;98550.91;5034471;28;20224;-69
2023/12/19 02:46:38;;;;;;;7.40;5.30;;;;;;;6.65;51.73;98543.25;5041334;28;20262;-70
2023/12/19 02:49:03;;;;;;;6.30;4.80;;;;;;;6.62;51.82;98538.22;5033110;28;20195;-70
2023/12/19 02:51:31;;;;;;;6.97;5.10;;;;;;;6.49;51.96;98530.34;5035511;28;20195;-71
2023/12/19 02:53:58;;;;;;;7.87;5.20;;;;;;;6.49;52.38;98521.72;5036954;28;20865;-69
2023/12/19 02:56:23;;;;;;;6.20;4.53;;;;;;;6.55;51.81;98511.72;5034592;28;20437;-70
2023/12/19 02:58:49;;;;;;;6.13;4.77;;;;;;;6.53;52.42;98516.22;5038588;28;20783;-69
2023/12/19 03:01:15;;;;;;;5.80;4.67;;;;;;;6.58;52.30;98524.56;5038228;28;20196;-70
2023/12/19 03:03:41;;;;;;;5.60;4.47;;;;;;;6.50;52.00;98529.41;5038218;28;20214;-69
2023/12/19 03:06:07;;;;;;;6.60;4.17;;;;;;;6.44;51.99;98522.81;5028887;28;20274;-71
2023/12/19 03:08:34;;;;;;;6.57;5.00;;;;;;;6.35;52.01;98517.34;5044342;28;20541;-69
2023/12/19 03:11:00;;;;;;;7.57;5.77;;;;;;;6.35;52.19;98517.34;5036624;28;20225;-71
2023/12/19 03:13:25;;;;;;;7.33;4.90;;;;;;;6.29;52.40;98516.78;5033988;28;20461;-70
2023/12/19 03:15:51;;;;;;;4.63;4.10;;;;;;;6.29;52.60;98516.78;5037118;28;20219;-70
2023/12/19 03:18:23;;;;;;;7.27;4.77;;;;;;;6.34;52.49;98520.88;5041268;28;20666;-70
2023/12/19 03:20:49;;;;;;;6.20;4.80;;;;;;;6.24;52.08;98531.00;5033693;28;20190;-68
2023/12/19 03:23:15;;;;;;;6.00;4.40;;;;;;;6.10;52.18;98529.22;5032280;28;20580;-70
2023/12/19 03:25:40;;;;;;;6.93;4.93;;;;;;;6.08;52.83;98525.88;5004710;28;20295;-70
2023/12/19 03:28:05;;;;;;;8.33;5.20;;;;;;;6.10;52.71;98532.69;5037242;28;20287;-69
2023/12/19 03:30:31;;;;;;;6.23;4.97;;;;;;;6.09;52.32;98522.34;5031359;28;20275;-70
2023/12/19 03:32:56;;;;;;;6.67;4.67;;;;;;;6.01;53.05;98514.16;5031700;28;20338;-71
2023/12/19 03:35:23;;;;;;;7.73;5.43;;;;;;;5.86;53.24;98506.31;5040680;28;20278;-69
2023/12/19 03:37:50;;;;;;;5.73;4.77;;;;;;;5.88;53.70;98506.19;5039577;28;20287;-72
2023/12/19 03:40:16;;;;;;;5.27;4.70;;;;;;;5.97;53.46;98519.50;5037037;28;20429;-70
2023/12/19 03:42:42;;;;;;;6.50;5.00;;;;;;;6.02;53.09;98518.44;5035182;28;20435;-71
2023/12/19 03:45:08;;;;;;;5.87;5.10;;;;;;;6.04;52.86;98514.81;5035818;28;20215;-70
2023/12/19 03:47:34;;;;;;;6.43;5.60;;;;;;;6.03;52.77;98512.31;5031776;28;20480;-70
2023/12/19 03:49:59;;;;;;;6.03;4.57;;;;;;;5.86;52.62;98500.28;5034566;28;20723;-69
2023/12/19 03:52:25;;;;;;;7.00;5.10;;;;;;;5.74;53.52;98496.63;5040753;28;20195;-71
2023/12/19 03:54:50;;;;;;;7.30;4.60;;;;;;;5.72;53.54;98490.66;5041084;28;20655;-72
2023/12/19 03:57:16;;;;;;;7.70;4.83;;;;;;;5.80;53.24;98496.25;5030015;28;20218;-70
2023/12/19 03:59:45;;;;;;;6.00;5.13;;;;;;;5.93;52.99;98509.38;5033407;28;20199;-70
2023/12/19 04:02:10;;;;;;;5.83;4.70;;;;;;;5.92;52.98;98505.91;5040308;28;20191;-69
2023/12/19 04:04:37;;;;;;;5.17;4.60;;;;;;;5.83;52.77;98502.13;5044316;28;21012;-67
2023/12/19 04:07:02;;;;;;;7.13;4.70;;;;;;;5.84;52.96;98500.34;5030707;28;20195;-70
2023/12/19 04:09:28;;;;;;;7.77;5.00;;;;;;;5.82;52.79;98499.59;5051020;28;20433;-72
2023/12/19 04:11:53;;;;;;;6.73;4.30;;;;;;;5.86;53.29;98505.47;5037135;28;20219;-71
2023/12/19 04:14:19;;;;;;;7.87;5.63;;;;;;;5.87;53.16;98491.50;5042847;28;20708;-71
2023/12/19 04:16:44;;;;;;;6.50;5.23;;;;;;;5.84;52.46;98477.78;5045254;28;20196;-71
2023/12/19 04:19:10;;;;;;;6.27;4.93;;;;;;;5.78;52.80;98472.09;5043713;28;20421;-68
2023/12/19 04:21:36;;;;;;;5.30;4.40;;;;;;;5.84;52.82;98472.56;5046917;28;20202;-69
2023/12/19 04:24:04;;;;;;;9.70;5.07;;;;;;;5.85;52.95;98476.00;5039932;28;20227;-69
2023/12/19 04:26:29;;;;;;;7.20;5.10;;;;;;;5.72;53.03;98468.09;5033267;28;20434;-72
2023/12/19 04:28:55;;;;;;;6.03;4.50;;;;;;;5.68;53.17;98472.63;5048553;28;20445;-70
2023/12/19 04:31:20;;;;;;;6.33;5.60;;;;;;;5.78;53.04;98472.09;5040047;28;20232;-70
2023/12/19 04:33:46;;;;;;;7.17;5.50;;;;;;;5.71;53.28;98465.56;5050961;28;20194;-69
2023/12/19 04:36:11;;;;;;;6.97;4.93;;;;;;;5.81;52.77;98451.09;5046365;28;20227;-73
2023/12/19 04:38:38;;;;;;;7.00;5.13;;;;;;;5.85;52.76;98442.16;5052392;28;20325;-70
2023/12/19 04:41:03;;;;;;;6.17;5.13;;;;;;;5.82;52.89;98447.56;5030331;28;20563;-69
2023/12/19 04:43:29;;;;;;;5.60;5.00;;;;;;;5.79;53.01;98445.97;5040606;28;20425;-69
2023/12/19 04:45:54;;;;;;;8.80;5.50;;;;;;;5.89;52.92;98448.03;5056930;28;20860;-70
2023/12/19 04:48:20;;;;;;;7.23;4.83;;;;;;;5.96;52.53;98450.16;5024125;28;20583;-71
2023/12/19 04:50:48;;;;;;;11.43;5.20;;;;;;;5.95;52.56;98458.09;5031439;28;20272;-70
2023/12/19 04:53:15;;;;;;;7.17;5.20;;;;;;;5.95;52.61;98458.91;5040910;28;20295;-69
2023/12/19 04:55:40;;;;;;;8.00;5.57;;;;;;;5.81;52.79;98457.13;5037535;28;20450;-70
2023/12/19 04:58:05;;;;;;;6.10;5.07;;;;;;;5.64;52.74;98450.34;5035586;28;20447;-69
2023/12/19 05:00:31;;;;;;;10.40;5.27;;;;;;;5.61;53.56;98454.88;5035520;28;20190;-71
2023/12/19 05:02:56;;;;;;;8.10;4.77;;;;;;;5.63;53.64;98443.47;5035502;28;20215;-69
2023/12/19 05:05:22;;;;;;;6.43;5.07;;;;;;;5.73;53.43;98448.09;5039143;28;20476;-68
2023/12/19 05:07:47;;;;;;;5.67;5.07;;;;;;;5.82;53.38;98431.94;5029550;28;20191;-69
2023/12/19 05:10:13;;;;;;;8.37;5.27;;;;;;;5.87;52.70;98435.13;5028138;28;20192;-69
2023/12/19 05:12:38;;;;;;;6.70;4.60;;;;;;;5.95;52.68;98430.28;5029715;28;20618;-71
2023/12/19 05:15:04;;;;;;;6.50;4.70;;;;;;;5.92;52.83;98432.22;5035143;28;20208;-70
2023/12/19 05:17:30;;;;;;;6.00;4.90;;;;;;;5.88;52.65;98426.38;5029173;28;20334;-71
2023/12/19 05:19:55;;;;;;;6.47;4.93;;;;;;;5.89;52.64;98427.22;5028184;28;20208;-69
2023/12/19 05:22:21;;;;;;;6.90;5.37;;;;;;;5.84;52.84;98419.69;5025140;28;20784;-69
2023/12/19 05:24:46;;;;;;;6.63;5.10;;;;;;;5.83;52.65;98424.06;5038069;28;20250;-68
2023/12/19 05:27:12;;;;;;;6.70;4.60;;;;;;;5.84;52.58;98417.94;5041059;28;20227;-70
2023/12/19 05:29:37;;;;;;;5.90;4.20;;;;;;;5.85;52.25;98410.94;5029887;28;20326;-70
2023/12/19 05:32:04;;;;;;;6.53;3.90;;;;;;;5.85;52.06;98408.34;5033491;28;20734;-69
2023/12/19 05:34:29;;;;;;;5.07;4.40;;;;;;;5.89;52.07;98403.78;5021513;28;20246;-70
2023/12/19 05:36:55;;;;;;;5.97;4.40;;;;;;;5.88;51.95;98402.97;5028711;28;20446;-71
2023/12/19 05:39:20;;;;;;;7.03;4.43;;;;;;;5.90;52.08;98401.13;5036837;28;20203;-70
2023/12/19 05:41:46;;;;;;;8.30;6.13;;;;;;;5.98;51.24;98411.88;5039775;28;20187;-70
2023/12/19 05:44:12;;;;;;;7.17;5.43;;;;;;;6.00;50.99;98414.41;5031566;28;20246;-70
2023/12/19 05:46:38;;;;;;;5.40;4.07;;;;;;;5.98;50.74;98411.88;5040503;28;20210;-70
2023/12/19 05:49:05;;;;;;;17.27;9.17;;;;;;;5.88;51.26;98407.31;5028867;28;20198;-71
2023/12/19 05:51:30;;;;;;;18.60;10.00;;;;;;;5.95;51.65;98400.81;5017804;28;20442;-68
2023/12/19 05:53:58;;;;;;;20.90;10.40;;;;;;;5.86;51.15;98412.63;5035575;28;20438;-70
2023/12/19 05:56:24;;;;;;;17.30;10.03;;;;;;;5.83;51.44;98400.66;5039428;28;20192;-70
2023/12/19 05:58:49;;;;;;;9.63;5.60;;;;;;;5.91;51.14;98401.94;5037358;28;20484;-70
2023/12/19 06:01:15;;;;;;;5.63;4.33;;;;;;;5.97;51.14;98396.38;5030019;28;20196;-71
2023/12/19 06:03:40;;;;;;;4.57;3.70;;;;;;;6.02;50.57;98390.91;5009927;28;20194;-69
2023/12/19 06:06:06;;;;;;;12.03;3.50;;;;;;;6.02;50.76;98390.91;5036109;28;20225;-71
2023/12/19 06:08:31;;;;;;;6.20;3.87;;;;;;;5.94;50.74;98383.53;5040462;28;20818;-71
2023/12/19 06:10:57;;;;;;;5.33;4.03;;;;;;;5.98;50.51;98375.44;5031361;28;20271;-69
2023/12/19 06:13:23;;;;;;;6.37;4.43;;;;;;;6.07;49.17;98370.63;5042850;28;20238;-71
2023/12/19 06:15:48;;;;;;;8.80;3.63;;;;;;;6.09;49.01;98368.75;5040486;28;20222;-71
2023/12/19 06:18:15;;;;;;;6.80;4.27;;;;;;;6.09;49.89;98371.38;5025562;28;20565;-70
2023/12/19 06:20:42;;;;;;;4.47;4.00;;;;;;;6.15;49.18;98368.38;5038429;28;20850;-67
2023/12/19 06:23:08;;;;;;;4.00;3.60;;;;;;;6.19;48.77;98380.25;5036819;28;20433;-69
2023/12/19 06:25:34;;;;;;;18.40;10.67;;;;;;;6.02;49.92;98390.91;5015557;28;20501;-69
2023/12/19 06:28:00;;;;;;;29.53;15.17;;;;;;;5.98;50.21;98396.25;5012095;28;20930;-69
2023/12/19 06:30:25;;;;;;;19.03;11.27;;;;;;;5.83;50.92;98413.66;5035264;28;20223;-69
2023/12/19 06:32:51;;;;;;;20.47;12.10;;;;;;;5.63;51.47;98422.66;5039118;28;20570;-69
2023/12/19 06:35:16;;;;;;;89.70;37.53;;;;;;;5.44;52.03;98432.44;5036178;28;20243;-69
2023/12/19 06:37:41;;;;;;;53.60;23.30;;;;;;;5.44;52.69;98433.31;5043372;28;20216;-69
2023/12/19 06:40:07;;;;;;;59.77;24.30;;;;;;;5.22;52.79;98433.72;5037185;28;20191;-69
2023/12/19 06:42:33;;;;;;;158.53;52.90;;;;;;;5.31;52.88;98442.75;5035368;28;20203;-70
2023/12/19 06:45:00;;;;;;;100.30;36.00;;;;;;;5.37;52.99;98444.97;5031149;28;20207;-70
2023/12/19 06:47:27;;;;;;;47.10;20.30;;;;;;;5.40;53.00;98442.19;5028319;28;20195;-71
2023/12/19 06:49:52;;;;;;;81.67;31.20;;;;;;;5.33;52.44;98451.28;5034907;28;20439;-69
2023/12/19 06:52:18;;;;;;;71.90;27.57;;;;;;;5.32;52.40;98452.22;5034921;28;20423;-69
2023/12/19 06:54:43;;;;;;;53.90;22.63;;;;;;;5.34;53.27;98458.19;5038151;28;20226;-69
2023/12/19 06:57:09;;;;;;;54.00;25.30;;;;;;;5.35;52.69;98455.47;5023664;28;20267;-69
2023/12/19 06:59:34;;;;;;;49.13;28.40;;;;;;;5.32;52.40;98454.81;5030820;28;20266;-69
2023/12/19 07:02:00;;;;;;;32.87;19.03;;;;;;;5.19;52.96;98442.53;5034646;28;20238;-70
2023/12/19 07:04:26;;;;;;;20.77;11.23;;;;;;;4.98;53.40;98439.38;5026574;28;20231;-69
2023/12/19 07:06:51;;;;;;;14.53;8.50;;;;;;;4.87;53.85;98426.16;5039698;28;20183;-69
2023/12/19 07:09:16;;;;;;;15.07;8.23;;;;;;;4.95;54.47;98426.56;5030640;28;20433;-69
2023/12/19 07:11:42;;;;;;;21.67;9.10;;;;;;;5.07;53.76;98417.25;5027431;28;20283;-71
2023/12/19 07:14:08;;;;;;;25.07;10.70;;;;;;;5.10;53.36;98409.28;5029033;28;20187;-70
2023/12/19 07:16:33;;;;;;;27.50;12.10;;;;;;;5.12;53.43;98401.38;5037340;28;20273;-70
2023/12/19 07:19:00;;;;;;;39.60;12.83;;;;;;;5.12;53.35;98403.97;5031178;28;20314;-69
2023/12/19 07:21:27;;;;;;;38.57;12.80;;;;;;;5.16;53.25;98403.69;5039562;28;20252;-71
2023/12/19 07:23:53;;;;;;;17.07;9.67;;;;;;;5.17;53.08;98407.13;5037956;28;20484;-70
2023/12/19 07:26:27;;;;;;;13.60;8.57;;;;;;;5.19;52.90;98397.47;5035949;28;20438;-69
2023/12/19 07:28:53;;;;;;;17.97;9.67;;;;;;;5.18;52.89;98398.41;5039561;28;20434;-69
2023/12/19 07:31:23;;;;;;;20.17;9.90;;;;;;;5.24;54.05;98408.47;5030531;28;20438;-70
2023/12/19 07:33:58;;;;;;;21.50;10.07;;;;;;;5.37;55.36;98417.22;5043517;28;20505;-69
2023/12/19 07:36:24;;;;;;;12.97;9.10;;;;;;;5.50;55.04;98432.09;5039254;28;20437;-70
2023/12/19 07:38:50;;;;;;;16.77;10.67;;;;;;;5.56;54.77;98421.31;5039474;28;20435;-69
2023/12/19 07:41:16;;;;;;;14.30;8.67;;;;;;;5.36;54.09;98415.53;5042362;28;20441;-69
2023/12/19 07:43:41;;;;;;;13.93;8.03;;;;;;;5.46;53.43;98417.59;5036428;28;20433;-68
2023/12/19 07:46:07;;;;;;;12.50;7.87;;;;;;;5.56;54.09;98430.91;5045497;28;20234;-70
2023/12/19 07:48:33;;;;;;;14.83;8.40;;;;;;;5.65;53.87;98431.22;5037032;28;20271;-69
2023/12/19 07:50:58;;;;;;;13.47;7.03;;;;;;;5.71;52.58;98434.34;5036601;28;20225;-69
2023/12/19 07:53:27;;;;;;;10.37;7.63;;;;;;;5.62;52.52;98441.78;5034932;28;20438;-69
2023/12/19 07:55:52;;;;;;;13.53;8.30;;;;;;;5.62;52.62;98447.00;5035119;28;20211;-71
2023/12/19 07:58:18;;;;;;;13.60;8.90;;;;;;;5.56;52.39;98436.94;5028050;28;20443;-70
2023/12/19 08:00:43;;;;;;;11.80;7.50;;;;;;;5.47;52.91;98438.34;5032557;28;20225;-69
2023/12/19 08:03:09;;;;;;;14.80;7.80;;;;;;;5.58;53.60;98442.88;5030042;28;20275;-69
2023/12/19 08:05:34;;;;;;;11.97;8.53;;;;;;;6.02;52.69;98422.97;5039631;28;20269;-70
2023/12/19 08:08:00;;;;;;;14.17;8.60;;;;;;;6.87;51.87;98415.06;5032431;28;20660;-69
2023/12/19 08:10:26;;;;;;;15.53;7.83;;;;;;;7.73;49.38;98422.50;5030576;28;20175;-67
2023/12/19 08:12:52;;;;;;;14.10;9.30;;;;;;;8.45;47.88;98419.28;5036446;28;20193;-68
2023/12/19 08:15:17;;;;;;;17.90;9.00;;;;;;;8.98;46.48;98418.97;5025700;28;20520;-69
2023/12/19 08:17:43;;;;;;;18.07;9.50;;;;;;;9.40;45.65;98422.94;5040481;28;20190;-68
2023/12/19 08:20:10;;;;;;;14.77;9.10;;;;;;;9.62;45.41;98411.69;5023244;28;20196;-70
2023/12/19 08:22:36;;;;;;;13.73;9.17;;;;;;;9.94;44.17;98422.31;5041032;28;20184;-70
2023/12/19 08:25:03;;;;;;;13.87;8.73;;;;;;;10.48;43.37;98412.03;5023881;28;20475;-70
2023/12/19 08:27:34;;;;;;;14.40;9.20;;;;;;;10.76;42.66;98407.19;5034623;28;20439;-70
2023/12/19 08:30:01;;;;;;;12.87;9.50;;;;;;;11.14;42.00;98408.50;5035053;28;20440;-70
2023/12/19 08:32:27;;;;;;;14.67;9.70;;;;;;;11.34;41.25;98406.03;5024610;28;20435;-69
2023/12/19 08:34:53;;;;;;;12.60;9.53;;;;;;;11.50;41.15;98409.00;5043663;28;20495;-69
2023/12/19 08:37:18;;;;;;;13.67;9.00;;;;;;;11.72;41.45;98396.69;5024355;28;20454;-70
2023/12/19 08:39:44;;;;;;;17.40;10.17;;;;;;;11.79;40.69;98373.34;5034838;28;20210;-71
2023/12/19 08:42:09;;;;;;;12.80;9.40;;;;;;;11.96;40.42;98383.25;5028337;28;20192;-69
2023/12/19 08:44:34;;;;;;;19.40;10.10;;;;;;;11.79;40.01;98386.50;5021646;28;20216;-70
2023/12/19 08:47:00;;;;;;;15.10;10.10;;;;;;;11.84;40.72;98390.38;5031207;28;20277;-69
2023/12/19 08:49:25;;;;;;;13.20;9.47;;;;;;;12.00;40.64;98383.84;5024262;28;20192;-70
2023/12/19 08:51:51;;;;;;;15.30;9.73;;;;;;;11.38;41.80;98378.53;5033594;28;20199;-69
2023/12/19 08:54:16;;;;;;;15.43;10.07;;;;;;;11.05;42.09;98385.66;5028777;28;20204;-71
2023/12/19 08:56:42;;;;;;;14.57;9.93;;;;;;;11.39;41.85;98392.50;5024715;28;20252;-68
2023/12/19 08:59:07;;;;;;;16.53;10.53;;;;;;;11.58;41.10;98383.91;5021106;28;20294;-69
2023/12/19 09:01:33;;;;;;;14.80;10.93;;;;;;;11.37;41.57;98388.22;5029130;28;20687;-70
2023/12/19 09:04:00;;;;;;;13.57;10.10;;;;;;;11.78;41.78;98395.34;5030424;28;20889;-70
2023/12/19 09:06:25;;;;;;;16.80;10.77;;;;;;;11.98;41.46;98383.16;5024368;28;20199;-70
2023/12/19 09:08:51;;;;;;;13.67;10.37;;;;;;;12.19;41.25;98383.09;5021454;28;20439;-69
2023/12/19 09:11:16;;;;;;;12.17;10.60;;;;;;;12.38;40.44;98365.72;5021823;28;20196;-69
2023/12/19 09:13:42;;;;;;;16.23;10.23;;;;;;;12.51;40.20;98370.69;5015866;28;20193;-69
2023/12/19 09:16:07;;;;;;;20.37;12.00;;;;;;;12.20;40.82;98373.41;5021652;28;20278;-69
2023/12/19 09:18:33;;;;;;;15.87;12.17;;;;;;;12.66;40.03;98369.34;5023521;28;20184;-69
2023/12/19 09:20:58;;;;;;;17.50;12.73;;;;;;;12.79;39.11;98369.06;5021046;28;20215;-69
2023/12/19 09:23:23;;;;;;;14.20;11.53;;;;;;;12.99;39.56;98362.00;5030786;28;20188;-70
2023/12/19 09:25:49;;;;;;;20.10;11.63;;;;;;;13.01;39.22;98346.91;5021625;28;20213;-69
2023/12/19 09:28:14;;;;;;;16.50;11.77;;;;;;;13.38;38.76;98355.88;5035626;28;20549;-72
2023/12/19 09:30:40;;;;;;;16.10;12.30;;;;;;;13.63;38.78;98345.72;5022957;28;20194;-70
2023/12/19 09:33:05;;;;;;;14.70;11.13;;;;;;;13.86;37.90;98355.88;5019800;28;20195;-70
2023/12/19 09:35:31;;;;;;;15.77;10.73;;;;;;;14.08;37.07;98341.50;5029314;28;20200;-70
2023/12/19 09:38:01;;;;;;;19.63;11.70;;;;;;;13.84;37.58;98337.59;5020675;28;20203;-69
2023/12/19 09:40:29;;;;;;;17.10;11.50;;;;;;;13.82;37.49;98323.72;5026760;28;20215;-69
2023/12/19 09:42:55;;;;;;;13.03;10.33;;;;;;;13.94;37.34;98317.28;5019992;28;20429;-69
2023/12/19 09:45:21;;;;;;;15.50;11.20;;;;;;;14.13;36.17;98308.44;5024203;28;20474;-70
2023/12/19 09:47:58;;;;;;;16.53;11.43;;;;;;;13.95;37.04;98289.13;5032255;28;22053;-70
2023/12/19 09:50:25;;;;;;;16.67;11.57;;;;;;;13.89;37.22;98301.06;5018960;28;20430;-69
2023/12/19 09:52:52;;;;;;;16.53;12.30;;;;;;;14.06;36.81;98310.00;5030295;28;20436;-68
2023/12/19 09:55:17;;;;;;;17.30;12.17;;;;;;;14.21;37.01;98315.63;5016297;28;20451;-70
2023/12/19 09:57:43;;;;;;;18.00;12.53;;;;;;;14.20;36.13;98316.59;5026519;28;20467;-69
2023/12/19 10:00:10;;;;;;;23.43;14.40;;;;;;;13.74;37.41;98327.09;5026948;28;20187;-69
2023/12/19 10:02:36;;;;;;;44.80;22.73;;;;;;;12.93;38.86;98328.38;5032320;28;20848;-69
2023/12/19 10:05:02;;;;;;;32.67;18.50;;;;;;;12.59;39.33;98320.91;5018429;28;20470;-69
2023/12/19 10:07:30;;;;;;;26.23;16.10;;;;;;;12.34;39.89;98333.63;5028639;28;20432;-70
2023/12/19 10:09:56;;;;;;;21.10;12.70;;;;;;;12.15;39.93;98334.41;5028176;28;20488;-70
2023/12/19 10:12:27;;;;;;;20.43;12.00;;;;;;;11.99;40.81;98332.25;5028347;28;20430;-71
2023/12/19 10:14:52;;;;;;;20.73;14.73;;;;;;;11.81;40.94;98332.88;5036029;28;20206;-71
2023/12/19 10:17:18;;;;;;;26.27;14.93;;;;;;;11.58;41.40;98321.72;5035408;28;20437;-71
2023/12/19 10:19:44;;;;;;;18.67;14.23;;;;;;;11.30;42.03;98310.94;5039395;28;20687;-71
2023/12/19 10:22:12;;;;;;;32.47;15.60;;;;;;;10.91;42.70;98295.81;5040457;28;20191;-71
2023/12/19 10:24:38;;;;;;;20.37;15.73;;;;;;;10.77;43.10;98290.06;5043872;28;20487;-72
2023/12/19 10:27:05;;;;;;;23.23;15.53;;;;;;;10.72;43.59;98303.50;5032636;28;20525;-72
2023/12/19 10:29:36;;;;;;;17.30;14.10;;;;;;;10.86;43.06;98299.78;5041735;28;20570;-73
2023/12/19 10:32:16;;;;;;;18.67;14.00;;;;;;;10.73;43.33;98292.91;5025997;28;20426;-71
2023/12/19 10:34:43;;;;;;;19.27;13.37;;;;;;;10.73;43.04;98302.56;5043062;28;20453;-72
2023/12/19 10:37:12;;;;;;;18.23;12.63;;;;;;;10.66;43.43;98301.41;5038164;28;20437;-72
2023/12/19 10:39:39;;;;;;;21.00;13.60;;;;;;;10.53;43.23;98305.03;5037761;28;20430;-71
2023/12/19 10:42:06;;;;;;;17.43;13.37;;;;;;;10.36;44.14;98290.66;5033449;28;20429;-72
2023/12/19 10:44:34;;;;;;;21.07;12.73;;;;;;;10.37;44.10;98278.38;5036023;28;20457;-73
2023/12/19 10:47:03;;;;;;;20.77;13.13;;;;;;;10.33;44.27;98276.97;5032645;28;20524;-72
2023/12/19 10:49:29;;;;;;;26.03;13.70;;;;;;;10.22;44.21;98275.22;5029097;28;20430;-72
2023/12/19 10:51:56;;;;;;;20.13;13.80;;;;;;;9.98;45.06;98263.94;5040607;28;20561;-72
2023/12/19 10:54:24;;;;;;;17.87;12.47;;;;;;;9.97;45.13;98262.28;5038857;28;20207;-72
2023/12/19 10:56:59;;;;;;;19.77;13.70;;;;;;;9.91;45.38;98262.78;5046635;28;21127;-72
2023/12/19 10:59:46;;;;;;;17.00;12.57;;;;;;;9.63;46.29;98249.25;5045683;28;20500;-73
2023/12/19 11:02:30;;;;;;;18.87;13.50;;;;;;;9.53;46.26;98248.31;5030757;28;20425;-72
2023/12/19 11:05:08;;;;;;;16.03;11.87;;;;;;;9.76;45.82;98253.53;5048472;28;21213;-72
2023/12/19 11:07:34;;;;;;;19.80;14.03;;;;;;;9.91;45.43;98246.22;5040984;28;20429;-72
2023/12/19 11:10:05;;;;;;;15.37;12.47;;;;;;;9.81;45.54;98261.88;5030495;28;20846;-72
2023/12/19 11:12:31;;;;;;;21.33;13.30;;;;;;;9.93;45.02;98254.81;5033825;28;20480;-72
2023/12/19 11:14:57;;;;;;;23.43;13.03;;;;;;;10.07;45.62;98248.47;5042540;28;20441;-71
2023/12/19 11:17:47;;;;;;;16.30;12.33;;;;;;;10.10;45.30;98243.81;5048180;28;20544;-71
2023/12/19 11:20:45;;;;;;;21.87;14.27;;;;;;;10.28;45.17;98248.50;5033432;28;20623;-70
2023/12/19 11:23:38;;;;;;;18.00;13.20;;;;;;;10.61;44.84;98241.50;5039313;28;20442;-71
2023/12/19 11:26:26;;;;;;;17.70;13.77;;;;;;;10.90;43.93;98228.56;5022179;28;20450;-70
2023/12/19 11:28:51;;;;;;;17.07;13.70;;;;;;;10.86;43.40;98221.91;5037029;28;20446;-71